Time;durP1;ratioP1;P1;durP2;ratioP2;P2;SDS_P1;SDS_P2;PMS_P1;PMS_P2;Temp;Humidity;BMP_temperature;BMP_pressure;BME280_temperature;BME280_humidity;BME280_pressure;Samples;Min_cycle;Max_cycle;Signal;HPM_P1;HPM_P2
2022/12/17 13:06:10;;;;;;;;;15.75;15.00;;;;;12.92;66.39;100349.06;5059473;28;45312;-82
2022/12/17 13:08:36;;;;;;;;;17.25;16.50;;;;;12.84;65.39;100324.47;5058984;28;45533;-78
2022/12/17 13:11:35;;;;;;;;;35.75;34.00;;;;;12.97;65.78;100338.69;5059306;28;45426;-81
2022/12/17 13:14:11;;;;;;;;;20.75;19.00;;;;;13.07;66.12;100335.34;5059328;28;45480;-82
2022/12/17 13:16:50;;;;;;;;;18.00;18.00;;;;;13.20;65.71;100323.31;5059419;28;45448;-80
2022/12/17 13:19:31;;;;;;;;;25.25;24.00;;;;;13.29;65.66;100328.75;5058762;28;45487;-80
2022/12/17 13:22:14;;;;;;;;;23.00;23.00;;;;;13.39;65.15;100336.72;5058810;28;45480;-82
2022/12/17 13:24:41;;;;;;;;;14.00;13.00;;;;;13.46;64.59;100334.22;5058512;28;45437;-80
2022/12/17 13:27:40;;;;;;;;;12.00;12.00;;;;;13.59;64.12;100337.94;5058906;28;45299;-79
2022/12/17 13:30:21;;;;;;;;;8.00;7.67;;;;;13.73;64.27;100339.00;5050810;28;45622;-81
2022/12/17 13:33:24;;;;;;;;;7.00;6.00;;;;;13.83;64.24;100326.88;5058779;28;45360;-81
2022/12/17 13:36:08;;;;;;;;;4.00;4.00;;;;;13.92;63.30;100326.09;5058829;28;45334;-69
2022/12/17 13:39:15;;;;;;;;;4.00;4.00;;;;;14.05;62.55;100328.03;5074776;28;45334;-75
2022/12/17 13:41:41;;;;;;;;;12.00;11.75;;;;;14.11;61.15;100306.22;5024403;28;45412;-82
2022/12/17 13:44:28;;;;;;;;;7.00;6.33;;;;;14.16;59.44;100309.75;5058904;28;45518;-80
2022/12/17 13:46:54;;;;;;;;;6.67;6.33;;;;;14.22;59.14;100303.69;5058776;28;45514;-82
2022/12/17 13:49:30;;;;;;;;;7.00;5.33;;;;;14.34;58.35;100306.44;5058713;28;45498;-77
2022/12/17 13:52:15;;;;;;;;;5.00;5.00;;;;;14.42;59.72;100302.16;5058209;28;45381;-73
2022/12/17 13:54:41;;;;;;;;;6.00;6.00;;;;;14.51;59.22;100304.88;5058299;28;45326;-78
2022/12/17 13:57:14;;;;;;;;;5.00;5.00;;;;;14.62;59.00;100298.88;5058602;28;45553;-69
2022/12/17 13:59:40;;;;;;;;;4.00;3.67;;;;;14.70;59.37;100302.47;5058693;28;45570;-81
2022/12/17 14:02:05;;;;;;;;;3.33;3.33;;;;;14.78;58.57;100307.78;5058325;28;45365;-81
2022/12/17 14:04:31;;;;;;;;;5.00;4.00;;;;;14.85;58.27;100314.88;5058329;28;45488;-78
2022/12/17 14:07:02;;;;;;;;;3.00;2.67;;;;;14.72;58.03;100282.31;5058448;28;45483;-81
2022/12/17 14:09:34;;;;;;;;;3.00;3.00;;;;;15.00;57.57;100325.53;5058534;28;45476;-71
2022/12/17 14:12:22;;;;;;;;;1.00;1.00;;;;;15.04;58.15;100323.78;5057727;28;46039;-74
2022/12/17 14:15:01;;;;;;;;;5.00;5.00;;;;;15.07;56.34;100323.84;5057691;28;45431;-77
2022/12/17 14:17:37;;;;;;;;;4.67;4.33;;;;;15.09;55.33;100324.72;5057333;28;45503;-79
2022/12/17 14:20:12;;;;;;;;;2.00;2.00;;;;;14.92;55.30;100319.31;5058151;28;45476;-75
2022/12/17 14:22:45;;;;;;;;;4.00;4.00;;;;;14.97;54.26;100333.41;5057924;28;46209;-74
2022/12/17 14:25:18;;;;;;;;;4.67;3.67;;;;;15.01;54.94;100339.56;5057618;28;45429;-70
2022/12/17 14:28:18;;;;;;;;;4.00;4.00;;;;;15.03;55.20;100348.34;5057964;28;45281;-69
2022/12/17 14:30:44;;;;;;;;;3.00;3.00;;;;;15.06;55.15;100359.78;5044400;28;45544;-69
2022/12/17 14:33:29;;;;;;;;;2.67;2.00;;;;;15.05;54.67;100367.66;5058030;28;46067;-81
2022/12/17 14:35:57;;;;;;;;;3.00;3.00;;;;;15.10;55.01;100371.22;5057792;28;45408;-69
2022/12/17 14:38:23;;;;;;;;;3.00;3.00;;;;;15.16;54.88;100371.28;5057790;28;45491;-69
2022/12/17 14:40:49;;;;;;;;;4.00;4.00;;;;;15.21;55.30;100369.53;5057901;28;45213;-80
2022/12/17 14:43:14;;;;;;;;;8.00;7.00;;;;;15.25;55.42;100373.97;5057681;28;45965;-69
2022/12/17 14:48:59;;;;;;;;;2.33;2.33;;;;;15.16;55.24;100381.81;5057891;28;45488;-71
2022/12/17 14:51:32;;;;;;;;;2.00;2.00;;;;;15.17;55.23;100394.06;5057176;28;45504;-74
2022/12/17 14:54:28;;;;;;;;;2.00;1.67;;;;;14.62;54.60;100314.66;5056520;28;45483;-80
2022/12/17 14:56:56;;;;;;;;;3.00;3.00;;;;;15.17;55.35;100415.13;5049199;28;45558;-72
2022/12/17 14:59:36;;;;;;;;;2.33;2.33;;;;;15.11;55.24;100415.06;5049296;28;45568;-78
2022/12/17 15:02:22;;;;;;;;;8.33;8.33;;;;;15.07;54.44;100424.69;5051671;28;46052;-74
2022/12/17 15:04:49;;;;;;;;;2.67;2.00;;;;;15.02;55.43;100429.03;5049415;28;46276;-79
2022/12/17 15:07:23;;;;;;;;;3.00;3.00;;;;;15.01;54.89;100436.91;5048770;28;45474;-72
2022/12/17 15:09:51;;;;;;;;;3.00;3.00;;;;;14.95;54.87;100423.69;5051789;28;45440;-75
2022/12/17 15:12:17;;;;;;;;;4.33;3.33;;;;;14.89;54.53;100428.00;5043680;28;45463;-76
2022/12/17 15:14:45;;;;;;;;;3.33;3.33;;;;;14.43;54.80;100367.00;5041219;28;45411;-74
2022/12/17 15:17:11;;;;;;;;;2.00;2.00;;;;;14.74;54.16;100422.56;5042023;28;45474;-78
2022/12/17 15:19:37;;;;;;;;;2.00;2.00;;;;;14.53;52.82;100418.81;5049953;28;45416;-78
2022/12/17 15:22:03;;;;;;;;;3.00;3.00;;;;;14.59;54.76;100432.94;5041390;28;45902;-71
2022/12/17 15:24:29;;;;;;;;;9.33;8.00;;;;;14.49;54.18;100443.31;5036121;28;45680;-78
2022/12/17 15:26:54;;;;;;;;;4.00;4.00;;;;;14.42;54.24;100438.81;5063414;28;45494;-79
2022/12/17 15:29:20;;;;;;;;;4.67;4.00;;;;;14.37;54.62;100443.16;5042164;28;45408;-70
2022/12/17 15:31:46;;;;;;;;;4.67;4.33;;;;;14.31;54.79;100445.69;5041618;28;45517;-71
2022/12/17 15:34:11;;;;;;;;;3.00;3.00;;;;;14.23;55.06;100442.97;5041711;28;45934;-79
2022/12/17 15:36:37;;;;;;;;;5.00;4.00;;;;;14.19;54.93;100454.31;5046004;28;45509;-74
2022/12/17 15:39:05;;;;;;;;;3.67;3.00;;;;;14.07;55.75;100449.75;5045859;28;45346;-71
2022/12/17 15:44:14;;;;;;;;;3.00;3.00;;;;;13.89;55.93;100457.38;5042522;28;45815;-71
2022/12/17 15:46:40;;;;;;;;;3.00;3.00;;;;;13.71;55.02;100442.22;5047046;28;45501;-70
2022/12/17 15:49:05;;;;;;;;;6.67;6.00;;;;;13.71;55.48;100448.34;5042053;28;45231;-70
2022/12/17 15:51:31;;;;;;;;;3.00;3.00;;;;;13.52;55.94;100441.91;5049340;28;45268;-72
2022/12/17 15:53:57;;;;;;;;;3.67;3.67;;;;;13.30;56.33;100422.31;5050991;28;45281;-70
2022/12/17 15:56:24;;;;;;;;;7.00;6.00;;;;;13.40;56.84;100443.47;5043322;28;45204;-75
2022/12/17 15:58:50;;;;;;;;;4.00;4.00;;;;;13.32;56.60;100444.22;5053845;28;45430;-72
2022/12/17 16:01:17;;;;;;;;;2.00;2.00;;;;;13.21;56.61;100448.38;5047863;28;45495;-71
2022/12/17 16:03:43;;;;;;;;;4.00;3.00;;;;;12.94;57.30;100428.63;5040430;28;46588;-79
2022/12/17 16:06:09;;;;;;;;;3.33;3.00;;;;;12.87;57.37;100455.63;5040083;28;45539;-78
2022/12/17 16:08:37;;;;;;;;;5.00;4.33;;;;;12.61;57.70;100421.00;5041643;28;46620;-68
2022/12/17 16:11:10;;;;;;;;;4.00;3.33;;;;;12.65;58.18;100453.41;5047723;28;45592;-78
2022/12/17 16:13:36;;;;;;;;;4.00;3.67;;;;;12.54;58.64;100454.09;5048930;28;45527;-67
2022/12/17 16:16:02;;;;;;;;;4.00;4.00;;;;;12.43;59.21;100465.19;5052000;28;45461;-74
2022/12/17 16:18:28;;;;;;;;;5.00;5.00;;;;;12.12;59.13;100434.00;5042405;28;45592;-70
2022/12/17 16:20:53;;;;;;;;;3.67;3.67;;;;;12.19;59.98;100457.69;5046122;28;45414;-77
2022/12/17 16:23:20;;;;;;;;;6.67;5.33;;;;;12.04;59.79;100443.41;5044456;28;46258;-70
2022/12/17 16:26:01;;;;;;;;;5.67;5.00;;;;;12.05;60.20;100455.66;5067475;28;45364;-75
2022/12/17 16:28:28;;;;;;;;;5.00;5.00;;;;;11.98;60.42;100474.69;5045478;28;45466;-74
2022/12/17 16:31:01;;;;;;;;;7.33;6.33;;;;;11.92;60.80;100482.41;5046671;28;45580;-76
2022/12/17 16:33:30;;;;;;;;;7.00;7.00;;;;;11.84;60.75;100492.66;5041898;28;45483;-73
2022/12/17 16:35:55;;;;;;;;;7.00;7.00;;;;;11.59;61.29;100464.13;5046612;28;45518;-72
2022/12/17 16:38:21;;;;;;;;;7.00;6.00;;;;;11.68;61.43;100490.53;5047335;28;45664;-71
2022/12/17 16:40:47;;;;;;;;;5.50;5.25;;;;;11.57;62.16;100497.22;5045086;28;46024;-80
2022/12/17 16:43:12;;;;;;;;;11.75;11.75;;;;;11.37;62.09;100474.06;5046714;28;45883;-74
2022/12/17 16:45:47;;;;;;;;;6.75;6.75;;;;;11.43;62.15;100486.41;5048487;28;45440;-80
2022/12/17 16:48:13;;;;;;;;;4.00;3.00;;;;;11.28;62.28;100465.97;5052917;28;45587;-80
2022/12/17 16:50:38;;;;;;;;;10.75;10.75;;;;;11.45;62.17;100492.56;5053374;28;45786;-79
2022/12/17 16:53:04;;;;;;;;;5.50;5.25;;;;;11.39;62.26;100489.78;5044504;28;45654;-71
2022/12/17 16:55:29;;;;;;;;;4.00;4.00;;;;;11.26;63.06;100476.41;5055652;28;45440;-75
2022/12/17 16:57:55;;;;;;;;;4.33;4.00;;;;;11.24;62.80;100487.66;5053167;28;45382;-70
2022/12/17 17:00:21;;;;;;;;;2.33;2.33;;;;;11.08;62.62;100460.22;5062298;28;45694;-73
2022/12/17 17:02:46;;;;;;;;;2.67;2.67;;;;;11.23;62.51;100480.66;5052567;28;45432;-71
2022/12/17 17:05:12;;;;;;;;;4.00;3.00;;;;;11.20;62.69;100484.09;5068146;27;45578;-72
2022/12/17 17:07:38;;;;;;;;;2.33;2.33;;;;;9.79;62.66;100260.78;5051958;28;45408;-69
2022/12/17 17:10:07;;;;;;;;;4.25;4.00;;;;;11.12;62.93;100514.34;5051928;28;45580;-72
2022/12/17 17:12:33;;;;;;;;;3.33;3.33;;;;;10.58;62.72;100394.41;5042550;28;46217;-72
2022/12/17 17:14:59;;;;;;;;;4.00;3.33;;;;;11.10;63.36;100489.91;5048813;28;45381;-72
2022/12/17 17:17:24;;;;;;;;;7.25;7.25;;;;;11.02;63.61;100488.81;5041440;28;45345;-71
2022/12/17 17:19:50;;;;;;;;;5.50;5.00;;;;;10.86;63.54;100475.34;5049570;28;45497;-70
2022/12/17 17:22:16;;;;;;;;;5.75;5.00;;;;;10.59;64.27;100444.09;5044677;28;46337;-73
2022/12/17 17:24:42;;;;;;;;;7.25;7.25;;;;;10.80;64.27;100503.00;5054112;28;45599;-68
2022/12/17 17:27:09;;;;;;;;;9.25;7.75;;;;;10.74;63.99;100495.88;5042231;28;45366;-71
2022/12/17 17:29:34;;;;;;;;;4.75;4.75;;;;;10.58;64.14;100473.66;5055003;28;45498;-73
2022/12/17 17:32:00;;;;;;;;;4.75;4.75;;;;;10.75;64.36;100513.34;5052077;28;45535;-72
2022/12/17 17:34:25;;;;;;;;;3.25;3.25;;;;;10.75;64.55;100519.44;5051580;28;45429;-75
2022/12/17 17:36:51;;;;;;;;;9.00;8.00;;;;;10.72;64.10;100508.00;5053473;28;45512;-74
2022/12/17 17:39:16;;;;;;;;;9.25;8.50;;;;;10.58;64.09;100489.31;5043487;28;45958;-75
2022/12/17 17:41:42;;;;;;;;;11.75;10.00;;;;;10.67;64.45;100520.94;5051938;28;46095;-75
2022/12/17 17:44:11;;;;;;;;;12.25;10.25;;;;;10.64;64.61;100525.19;5053871;28;45472;-75
2022/12/17 17:46:38;;;;;;;;;12.00;11.50;;;;;10.47;64.93;100511.66;5054993;28;45423;-74
2022/12/17 17:49:05;;;;;;;;;14.50;12.75;;;;;10.52;65.22;100531.84;5050368;28;46148;-73
2022/12/17 17:51:34;;;;;;;;;13.25;12.75;;;;;10.42;65.51;100539.34;5054050;28;45518;-75
2022/12/17 17:54:07;;;;;;;;;12.00;11.00;;;;;10.37;65.51;100536.59;5052968;28;45482;-76
2022/12/17 17:56:36;;;;;;;;;29.75;29.50;;;;;10.39;65.79;100547.97;5043634;28;45490;-74
2022/12/17 17:59:07;;;;;;;;;19.75;17.25;;;;;10.33;65.83;100548.66;5051861;28;45496;-75
2022/12/17 18:01:36;;;;;;;;;19.25;16.75;;;;;10.29;66.44;100556.34;5051236;28;45753;-76
2022/12/17 18:04:02;;;;;;;;;11.00;10.00;;;;;10.28;66.12;100546.72;5051593;28;45575;-74
2022/12/17 18:06:28;;;;;;;;;18.00;17.25;;;;;10.27;65.98;100551.06;5052801;28;45551;-72
2022/12/17 18:08:56;;;;;;;;;17.25;16.00;;;;;10.30;65.98;100553.78;5050797;28;45452;-75
2022/12/17 18:11:23;;;;;;;;;14.50;13.25;;;;;10.06;66.26;100519.94;5066041;28;45727;-74
2022/12/17 18:13:55;;;;;;;;;8.00;7.50;;;;;10.28;66.05;100567.59;5052702;28;45572;-74
2022/12/17 18:16:44;;;;;;;;;16.00;15.00;;;;;10.28;66.05;100565.00;5053375;28;45591;-74
2022/12/17 18:19:15;;;;;;;;;10.25;8.50;;;;;10.22;66.37;100564.81;5054344;28;45617;-76
2022/12/17 18:21:41;;;;;;;;;6.50;6.50;;;;;10.18;66.55;100562.94;5055789;28;45515;-71
2022/12/17 18:24:11;;;;;;;;;5.00;4.00;;;;;10.12;66.81;100561.00;5053144;28;45518;-72
2022/12/17 18:26:41;;;;;;;;;9.00;9.00;;;;;10.09;67.13;100560.94;5053272;28;45531;-73
2022/12/17 18:29:09;;;;;;;;;7.50;7.50;;;;;9.98;67.44;100557.06;5050671;28;45654;-74
2022/12/17 18:31:34;;;;;;;;;9.25;6.50;;;;;10.04;67.37;100580.75;5052738;28;45429;-74
2022/12/17 18:34:01;;;;;;;;;9.00;8.00;;;;;9.79;67.55;100550.34;5055115;28;45462;-74
2022/12/17 18:36:38;;;;;;;;;6.50;6.25;;;;;9.96;67.29;100589.22;5051369;28;45421;-75
2022/12/17 18:39:07;;;;;;;;;5.75;5.00;;;;;9.98;67.75;100593.63;5052121;28;45410;-75
2022/12/17 18:44:19;;;;;;;;;7.75;7.75;;;;;9.97;67.53;100605.78;5051629;28;45594;-74
2022/12/17 18:46:45;;;;;;;;;8.00;6.00;;;;;10.01;67.24;100609.34;5049874;28;45394;-74
2022/12/17 18:49:12;;;;;;;;;10.00;7.75;;;;;10.01;67.19;100614.56;5051118;28;45226;-74
2022/12/17 18:51:40;;;;;;;;;6.75;6.25;;;;;10.00;67.20;100624.13;5055706;28;45402;-75
2022/12/17 18:54:08;;;;;;;;;8.00;8.00;;;;;9.88;67.43;100605.47;5052856;28;46161;-76
2022/12/17 18:56:36;;;;;;;;;11.25;10.25;;;;;9.99;67.48;100626.69;5053533;28;45349;-74
2022/12/17 18:59:02;;;;;;;;;11.00;10.50;;;;;10.01;66.91;100631.16;5053290;28;45448;-77
2022/12/17 19:01:30;;;;;;;;;11.00;10.00;;;;;10.00;67.50;100631.09;5049987;28;46145;-76
2022/12/17 19:03:56;;;;;;;;;5.25;5.25;;;;;10.01;67.52;100632.84;5051073;28;45392;-68
2022/12/17 19:06:23;;;;;;;;;6.25;5.25;;;;;10.02;67.20;100632.91;5052807;28;45448;-76
2022/12/17 19:08:50;;;;;;;;;9.00;8.25;;;;;10.02;67.30;100634.63;5066660;28;45425;-75
2022/12/17 19:11:20;;;;;;;;;6.75;5.75;;;;;10.03;67.18;100641.66;5049959;28;45568;-75
2022/12/17 19:13:47;;;;;;;;;7.75;7.75;;;;;10.02;67.37;100640.72;5048794;28;45834;-70
2022/12/17 19:16:18;;;;;;;;;11.00;10.00;;;;;10.03;67.37;100642.53;5049353;28;45385;-72
2022/12/17 19:18:49;;;;;;;;;6.25;6.25;;;;;10.02;67.27;100651.19;5050648;28;45462;-70
2022/12/17 19:21:14;;;;;;;;;5.25;5.25;;;;;9.89;67.51;100629.00;5052987;28;46327;-71
2022/12/17 19:23:41;;;;;;;;;9.50;9.00;;;;;10.00;67.87;100654.56;5048578;28;45465;-74
2022/12/17 19:26:12;;;;;;;;;9.00;8.75;;;;;9.96;67.73;100658.78;5048299;28;45770;-72
2022/12/17 19:28:43;;;;;;;;;12.00;11.25;;;;;9.94;67.59;100656.13;5042829;28;45444;-71
2022/12/17 19:31:10;;;;;;;;;10.75;9.00;;;;;9.91;67.89;100663.00;5048667;28;45511;-75
2022/12/17 19:33:36;;;;;;;;;8.00;6.25;;;;;9.79;68.01;100641.66;5041396;28;45424;-72
2022/12/17 19:36:10;;;;;;;;;8.50;8.50;;;;;9.81;67.99;100653.03;5051852;28;45491;-71
2022/12/17 19:38:35;;;;;;;;;8.50;8.00;;;;;9.81;68.32;100659.16;5043106;28;45606;-75
2022/12/17 19:41:03;;;;;;;;;8.00;6.50;;;;;9.79;68.35;100660.84;5051644;28;45454;-70
2022/12/17 19:43:28;;;;;;;;;8.00;6.25;;;;;9.79;68.34;100670.38;5043800;28;45430;-72
2022/12/17 19:46:07;;;;;;;;;8.00;7.00;;;;;9.74;68.27;100671.09;5036175;28;45499;-69
2022/12/17 19:48:35;;;;;;;;;7.75;7.25;;;;;9.73;68.57;100665.84;5051681;28;45330;-69
2022/12/17 19:51:01;;;;;;;;;6.75;5.75;;;;;9.72;68.53;100664.94;5050395;28;45567;-72
2022/12/17 19:53:29;;;;;;;;;7.75;7.75;;;;;9.65;68.59;100654.22;5050464;28;45542;-72
2022/12/17 19:56:10;;;;;;;;;9.50;9.00;;;;;9.68;68.78;100660.44;5046635;28;45491;-71
2022/12/17 19:58:35;;;;;;;;;7.00;7.00;;;;;9.66;68.75;100669.94;5047802;28;45721;-71
2022/12/17 20:01:09;;;;;;;;;21.25;17.00;;;;;9.64;69.06;100666.38;5049468;28;45535;-68
2022/12/17 20:03:36;;;;;;;;;16.50;15.00;;;;;9.64;68.82;100665.50;5047436;28;45405;-77
2022/12/17 20:06:02;;;;;;;;;10.00;9.75;;;;;9.62;69.09;100673.28;5055420;28;45301;-70
2022/12/17 20:08:29;;;;;;;;;8.00;8.00;;;;;9.68;68.72;100664.78;5052025;28;45496;-70
2022/12/17 20:10:54;;;;;;;;;5.00;5.00;;;;;8.94;68.83;100545.72;5049758;28;46283;-76
2022/12/17 20:13:20;;;;;;;;;11.50;9.00;;;;;9.72;68.80;100672.75;5049439;28;45480;-69
2022/12/17 20:15:46;;;;;;;;;10.00;10.00;;;;;9.75;68.69;100679.84;5043148;28;45529;-76
2022/12/17 20:18:11;;;;;;;;;11.00;8.75;;;;;9.79;68.26;100673.88;5044500;28;45347;-72
2022/12/17 20:20:37;;;;;;;;;7.25;7.00;;;;;9.78;68.46;100677.31;5055452;28;46020;-75
2022/12/17 20:23:03;;;;;;;;;9.75;9.00;;;;;9.78;68.42;100684.25;5054055;28;45497;-74
2022/12/17 20:25:28;;;;;;;;;21.75;19.25;;;;;9.86;67.96;100683.69;5054885;28;45799;-73
2022/12/17 20:27:54;;;;;;;;;18.00;14.00;;;;;9.93;67.70;100688.28;5047924;28;45500;-72
2022/12/17 20:30:20;;;;;;;;;20.50;18.00;;;;;9.99;67.81;100691.94;5050862;28;46061;-75
2022/12/17 20:32:46;;;;;;;;;15.25;14.50;;;;;9.93;67.57;100687.41;5046238;28;45474;-74
2022/12/17 20:35:11;;;;;;;;;12.75;12.50;;;;;10.04;67.27;100698.22;5048916;28;45294;-75
2022/12/17 20:37:37;;;;;;;;;27.50;26.50;;;;;9.87;67.29;100680.25;5073037;28;45335;-70
2022/12/17 20:40:03;;;;;;;;;11.00;9.00;;;;;9.67;67.61;100655.16;5048831;28;46271;-77
2022/12/17 20:42:28;;;;;;;;;9.25;9.25;;;;;9.94;67.87;100703.09;5054478;28;45896;-75
2022/12/17 20:44:54;;;;;;;;;8.00;5.00;;;;;9.83;67.92;100691.41;5051237;28;45465;-75
2022/12/17 20:47:19;;;;;;;;;8.00;6.25;;;;;9.75;67.98;100690.28;5049340;28;45367;-70
2022/12/17 20:49:45;;;;;;;;;7.50;7.00;;;;;9.49;68.17;100656.31;5058327;28;45904;-76
2022/12/17 20:52:10;;;;;;;;;7.00;6.25;;;;;9.82;68.17;100709.63;5055821;28;45332;-76
2022/12/17 20:54:36;;;;;;;;;9.00;8.00;;;;;9.81;68.22;100715.66;5047986;28;45773;-74
2022/12/17 20:57:01;;;;;;;;;8.00;8.00;;;;;9.51;68.42;100669.38;5055802;28;45522;-71
2022/12/17 20:59:27;;;;;;;;;7.25;7.00;;;;;9.61;68.70;100694.06;5053131;28;45501;-74
2022/12/17 21:01:53;;;;;;;;;6.75;6.75;;;;;9.72;68.63;100732.75;5053673;28;45467;-72
2022/12/17 21:04:18;;;;;;;;;8.00;7.00;;;;;9.70;68.86;100728.31;5051328;28;45490;-74
2022/12/17 21:06:46;;;;;;;;;7.50;6.00;;;;;9.68;68.86;100736.09;5052683;28;45507;-70
2022/12/17 21:09:13;;;;;;;;;7.50;7.00;;;;;9.68;68.81;100725.66;5053168;28;46134;-72
2022/12/17 21:11:40;;;;;;;;;8.00;7.00;;;;;9.68;68.65;100738.69;5052083;28;45543;-72
2022/12/17 21:14:08;;;;;;;;;6.50;5.00;;;;;9.58;68.69;100731.38;5056628;28;45382;-73
2022/12/17 21:16:37;;;;;;;;;6.75;6.50;;;;;9.66;68.85;100740.38;5056570;28;45489;-73
2022/12/17 21:19:05;;;;;;;;;5.50;4.50;;;;;9.82;68.38;100746.16;5055851;28;47810;-70
2022/12/17 21:21:33;;;;;;;;;6.75;6.75;;;;;9.39;67.98;100658.50;5054282;28;45488;-69
2022/12/17 21:24:00;;;;;;;;;5.25;5.00;;;;;9.94;67.70;100744.84;5054724;28;45466;-69
2022/12/17 21:26:29;;;;;;;;;5.50;5.50;;;;;9.92;67.99;100748.25;5052114;28;45365;-71
2022/12/17 21:29:00;;;;;;;;;7.50;7.25;;;;;9.85;68.11;100752.38;5052821;28;45346;-76
2022/12/17 21:31:29;;;;;;;;;5.00;5.00;;;;;9.78;68.29;100752.97;5053189;28;45540;-70
2022/12/17 21:33:57;;;;;;;;;8.50;6.25;;;;;9.75;68.40;100747.66;5056534;28;45448;-73
2022/12/17 21:36:24;;;;;;;;;6.75;6.75;;;;;9.61;68.44;100728.91;5053799;28;45539;-70
2022/12/17 21:38:51;;;;;;;;;5.50;5.00;;;;;9.73;68.63;100749.31;5050932;28;45543;-73
2022/12/17 21:41:22;;;;;;;;;4.00;3.75;;;;;9.72;68.53;100750.16;5053287;28;45554;-69
2022/12/17 21:43:56;;;;;;;;;5.00;4.50;;;;;9.79;68.05;100746.03;5055581;28;45529;-73
2022/12/17 21:46:25;;;;;;;;;5.00;5.00;;;;;9.80;67.67;100726.94;5050576;28;45504;-75
2022/12/17 21:48:52;;;;;;;;;6.75;6.75;;;;;9.83;67.85;100741.00;5038292;28;46221;-69
2022/12/17 21:51:19;;;;;;;;;5.00;5.00;;;;;9.81;67.90;100732.22;5043799;28;45519;-70
2022/12/17 21:53:45;;;;;;;;;4.00;4.00;;;;;9.65;68.02;100712.53;5055866;28;45720;-71
2022/12/17 21:56:17;;;;;;;;;7.00;5.75;;;;;9.84;67.70;100734.03;5070622;28;45561;-70
2022/12/17 21:58:44;;;;;;;;;4.25;4.25;;;;;9.84;67.91;100737.53;5054799;28;45609;-71
2022/12/17 22:01:19;;;;;;;;;6.00;5.00;;;;;9.90;67.52;100742.09;5050591;28;45456;-69
2022/12/17 22:03:45;;;;;;;;;9.00;8.50;;;;;9.78;67.79;100726.00;5050364;28;45376;-68
2022/12/17 22:06:14;;;;;;;;;6.50;6.50;;;;;9.85;67.66;100743.66;5065716;28;45577;-70
2022/12/17 22:08:40;;;;;;;;;9.00;7.00;;;;;9.86;67.68;100751.53;5052654;28;46177;-69
2022/12/17 22:11:10;;;;;;;;;5.25;5.00;;;;;9.85;67.97;100759.31;5053314;28;45449;-69
2022/12/17 22:16:22;;;;;;;;;5.00;4.50;;;;;9.78;68.13;100762.53;5053699;28;45542;-73
2022/12/17 22:18:47;;;;;;;;;4.75;4.00;;;;;9.58;68.26;100739.19;5050636;28;45359;-69
2022/12/17 22:21:13;;;;;;;;;4.00;4.00;;;;;9.76;68.12;100770.28;5057080;28;45223;-69
2022/12/17 22:23:38;;;;;;;;;4.00;4.00;;;;;9.64;68.06;100756.81;5044509;28;45536;-74
2022/12/17 22:26:09;;;;;;;;;4.00;4.00;;;;;9.73;68.25;100776.28;5050856;28;45564;-72
2022/12/17 22:28:35;;;;;;;;;4.25;3.00;;;;;9.79;68.27;100774.72;5050783;28;45417;-70
2022/12/17 22:33:55;;;;;;;;;7.00;5.75;;;;;9.76;67.98;100773.78;5055043;28;45465;-74
2022/12/17 22:36:21;;;;;;;;;10.00;8.25;;;;;9.88;68.11;100786.38;5053289;28;45473;-70
2022/12/17 22:38:46;;;;;;;;;11.25;10.00;;;;;9.92;67.79;100784.78;5048930;28;45768;-70
2022/12/17 22:43:28;;;;;;;;;11.25;8.00;;;;;9.95;67.52;100779.69;5048936;28;45526;-69
2022/12/17 22:44:01;;;;;;;;;53.50;37.50;;;;;10.04;67.34;100776.50;5049940;28;45496;-69
2022/12/17 22:46:28;;;;;;;;;23.50;21.75;;;;;10.01;67.53;100766.88;5048668;28;45649;-72
2022/12/17 22:48:55;;;;;;;;;12.50;9.75;;;;;10.17;66.91;100778.72;5042724;28;46119;-74
2022/12/17 22:51:24;;;;;;;;;5.00;5.00;;;;;10.18;66.66;100775.28;5040758;28;45327;-77
2022/12/17 22:53:53;;;;;;;;;7.75;5.25;;;;;9.98;66.84;100739.75;5036723;28;45521;-76
2022/12/17 22:56:20;;;;;;;;;4.00;3.00;;;;;10.26;66.03;100771.19;5037141;28;45603;-74
2022/12/17 22:58:46;;;;;;;;;5.75;5.50;;;;;10.08;66.04;100739.25;5037052;28;45930;-72
2022/12/17 23:01:12;;;;;;;;;6.50;5.50;;;;;10.26;66.38;100773.81;5037211;28;45405;-72
2022/12/17 23:03:41;;;;;;;;;2.75;2.75;;;;;10.09;65.91;100741.03;5049560;28;45368;-69
2022/12/17 23:06:10;;;;;;;;;4.00;4.00;;;;;10.34;65.56;100789.78;5056211;28;45489;-70
2022/12/17 23:08:35;;;;;;;;;4.00;3.50;;;;;10.36;65.42;100777.66;5057534;28;46081;-73
2022/12/17 23:11:15;;;;;;;;;4.00;4.00;;;;;10.32;65.35;100781.88;5056498;28;45486;-75
2022/12/17 23:13:41;;;;;;;;;4.00;4.00;;;;;10.40;65.00;100778.66;5039381;28;45412;-73
2022/12/17 23:16:09;;;;;;;;;3.00;2.25;;;;;10.39;64.95;100777.78;5054715;28;45470;-68
2022/12/17 23:18:35;;;;;;;;;3.00;3.00;;;;;10.32;64.40;100763.63;5054769;28;47595;-73
2022/12/17 23:21:19;;;;;;;;;3.00;3.00;;;;;10.46;64.39;100779.75;5052603;28;45476;-73
2022/12/17 23:23:44;;;;;;;;;5.00;3.00;;;;;10.50;64.24;100766.00;5054711;28;46158;-72
2022/12/17 23:26:14;;;;;;;;;5.00;4.00;;;;;10.52;64.05;100769.53;5054411;28;45432;-72
2022/12/17 23:28:40;;;;;;;;;4.00;3.25;;;;;10.50;63.99;100768.59;5051211;28;45539;-67
2022/12/17 23:31:12;;;;;;;;;5.75;5.00;;;;;10.58;64.07;100776.66;5057320;28;45562;-71
2022/12/17 23:33:38;;;;;;;;;4.00;4.00;;;;;10.58;63.76;100775.78;5053596;28;45524;-74
2022/12/17 23:36:10;;;;;;;;;4.00;3.75;;;;;10.58;64.05;100786.25;5056293;28;45453;-72
2022/12/17 23:38:38;;;;;;;;;3.00;3.00;;;;;10.56;64.06;100780.97;5056385;28;46117;-73
2022/12/17 23:41:09;;;;;;;;;4.00;3.00;;;;;10.54;64.16;100783.53;5056166;28;45949;-75
2022/12/17 23:43:35;;;;;;;;;5.00;4.00;;;;;10.55;64.11;100789.66;5055159;28;45529;-71
2022/12/17 23:46:01;;;;;;;;;3.25;3.00;;;;;10.55;63.95;100787.03;5055981;28;45549;-73
2022/12/17 23:48:32;;;;;;;;;3.00;3.00;;;;;10.59;63.68;100793.25;5056568;28;45530;-72
2022/12/17 23:50:59;;;;;;;;;2.75;2.75;;;;;10.59;63.98;100801.09;5059147;28;46225;-75
2022/12/17 23:53:26;;;;;;;;;4.00;3.00;;;;;10.44;63.81;100760.53;5058813;28;45472;-68
2022/12/17 23:55:51;;;;;;;;;3.00;2.00;;;;;10.44;64.28;100773.59;5054165;28;45582;-69
2022/12/17 23:58:17;;;;;;;;;4.00;3.67;;;;;10.50;64.12;100792.13;5048064;28;45550;-68
